Flight Track Log - Related Links

Times and Time Zones

All times are in EDT time to prevent confusion due to time zone crossing. See the TAM3750 flight status page for this flight to view local times or setup timezone preferences in your user account.

Time Position Orientation Groundspeed Altitude Reporting Facility
EDT Latitude Longitude Course Direction KTS MPH feet Rate Location/Type
Sat 07:35:52 PM -23.4300 -46.4870 33° Northeast 9 10  Level FlightAware ADS-B
Sat 07:37:06 PM -23.4310 -46.4840 110° East 11 13 611 Level FlightAware ADS-B
Sat 07:37:32 PM -23.4320 -46.4840 180° South 9 10 792 Level FlightAware ADS-B
Sat 07:38:46 PM -23.4340 -46.4830 155° Southeast 11 13 884 Level FlightAware ADS-B
Sat 07:40:11 PM -23.4340 -46.4820 90° East 23 26 1,320 Level FlightAware ADS-B
Sat 07:41:16 PM -23.4220 -46.4380 73° East 177 204 3,300 2,202 Climbing FlightAware ADS-B
Sat 07:42:00 PM -23.4350 -46.4120 119° Southeast 193 222 4,000 1,120 Climbing FlightAware ADS-B
Sat 07:42:31 PM -23.4670 -46.4330 211° Southwest 239 275 4,700 1,607 Climbing FlightAware ADS-B
Sat 07:42:56 PM -23.4830 -46.4570 234° Southwest 242 278 5,500 1,667 Climbing FlightAware ADS-B
Sat 07:43:07 PM -23.4920 -46.4680 228° Southwest 253 291 5,700 1,050 Climbing FlightAware ADS-B
Sat 07:43:36 PM -23.5150 -46.4990 231° Southwest 280 322 6,200 1,525 Climbing FlightAware ADS-B
Sat 07:44:06 PM -23.5370 -46.5290 231° Southwest 286 329 7,200 2,143 Climbing FlightAware ADS-B
Sat 07:44:32 PM -23.5540 -46.5640 242° Southwest 286 329 8,200 1,745 Climbing FlightAware ADS-B
Sat 07:45:01 PM -23.5540 -46.5890 270° West 291 335 8,800 1,615 Climbing FlightAware ADS-B
Sat 07:45:24 PM -23.5510 -46.6260 275° West 291 335 9,600 1,750 Climbing FlightAware ADS-B
Sat 07:46:13 PM -23.5450 -46.7220 274° West 333 383 10,900 1,290 Climbing FlightAware ADS-B
Sat 07:46:57 PM -23.5410 -46.7990 273° West 367 422 11,600 1,125 Climbing FlightAware ADS-B
Sat 07:47:33 PM -23.5370 -46.8700 274° West 385 443 12,400 1,571 Climbing FlightAware ADS-B
Sat 07:48:21 PM -23.5270 -46.9640 277° West 396 456 13,800 1,705 Climbing FlightAware ADS-B
Sat 07:49:01 PM -23.4970 -47.0350 295° West 400 460 14,900 1,714 Climbing FlightAware ADS-B
Sat 07:49:45 PM -23.4630 -47.1170 294° West 405 466 16,200 1,535 Climbing FlightAware ADS-B
Sat 07:50:27 PM -23.4300 -47.1950 295° West 416 479 17,100 1,390 Climbing FlightAware ADS-B
Sat 07:51:07 PM -23.3970 -47.2730 295° West 421 484 18,100 1,571 Climbing FlightAware ADS-B
Sat 07:51:51 PM -23.3620 -47.3570 294° West 422 486 19,300 1,500 Climbing FlightAware ADS-B
Sat 07:52:31 PM -23.3290 -47.4360 294° West 427 491 20,200 1,259 Climbing FlightAware ADS-B
Sat 07:53:12 PM -23.2950 -47.5160 295° West 432 497 21,000 1,143 Climbing FlightAware ADS-B
Sat 07:53:55 PM -23.2590 -47.6020 294° West 437 503 21,800 1,172 Climbing FlightAware ADS-B
Sat 07:54:39 PM -23.2220 -47.6900 295° West 439 505 22,700 1,200 Climbing FlightAware ADS-B
Sat 07:55:15 PM -23.1910 -47.7610 295° West 442 509 23,400 1,071 Climbing FlightAware ADS-B
Sat 07:56:03 PM -23.1510 -47.8570 294° West 445 512 24,200 966 Climbing FlightAware ADS-B
Sat 07:56:42 PM -23.1170 -47.9370 295° West 449 517 24,800 857 Climbing FlightAware ADS-B
Sat 07:57:27 PM -23.0660 -48.0250 302° West 456 525 25,400 1,091 Climbing FlightAware ADS-B
Sat 07:58:10 PM -23.0120 -48.1020 307° West 449 517 26,400 1,084 Climbing FlightAware ADS-B
Sat 07:58:50 PM -22.9620 -48.1740 307° West 452 520 26,900 1,143 Climbing FlightAware ADS-B
Sat 07:59:34 PM -22.9070 -48.2550 306° West 443 510 28,000 1,084 Climbing FlightAware ADS-B
Sat 08:00:13 PM -22.8610 -48.3210 307° West 445 512 28,400 889 Climbing FlightAware ADS-B
Sat 08:00:55 PM -22.8090 -48.3960 307° West 440 506 29,200 1,116 Climbing FlightAware ADS-B
Sat 08:01:39 PM -22.7540 -48.4760 307° West 432 497 30,000 571 Climbing FlightAware ADS-B
Sat 08:02:19 PM -22.7080 -48.5430 307° West 429 494 30,000  Level FlightAware ADS-B
Sat 08:02:59 PM -22.6600 -48.6110 307° West 432 497 30,000  Level FlightAware ADS-B
Sat 08:03:45 PM -22.6050 -48.6900 307° West 431 496 30,000  Level FlightAware ADS-B
Sat 08:04:25 PM -22.5540 -48.7630 307° West 430 495 30,000  Level FlightAware ADS-B
Sat 08:05:07 PM -22.5040 -48.8360 307° West 430 495 30,000  Level FlightAware ADS-B
Sat 08:05:49 PM -22.4540 -48.9070 307° West 428 493 30,000  Level FlightAware ADS-B
Sat 08:06:29 PM -22.4080 -48.9720 307° West 428 493 30,000  Level FlightAware ADS-B
Sat 08:07:13 PM -22.3550 -49.0480 307° West 429 494 30,000  Level FlightAware ADS-B
Sat 08:07:55 PM -22.3020 -49.1210 308° West 433 498 30,000  Level FlightAware ADS-B
Sat 08:08:39 PM -22.2430 -49.1870 314° West 437 503 30,000  Level FlightAware ADS-B
Sat 08:09:20 PM -22.1870 -49.2500 314° West 436 502 30,000  Level FlightAware ADS-B
Sat 08:10:00 PM -22.1270 -49.3150 315° West 437 503 30,000  Level FlightAware ADS-B
Sat 08:10:45 PM -22.0640 -49.3870 313° West 438 504 30,000  Level FlightAware ADS-B
Sat 08:11:28 PM -22.0040 -49.4530 314° West 439 505 30,000  Level FlightAware ADS-B
Sat 08:12:08 PM -21.9490 -49.5150 314° West 439 505 30,000 75 Level FlightAware ADS-B
Sat 08:12:48 PM -21.8890 -49.5810 314° West 436 502 30,100  Climbing FlightAware ADS-B
Sat 08:13:32 PM -21.8300 -49.6470 314° West 433 498 30,000 -70 Descending FlightAware ADS-B
Sat 08:14:14 PM -21.7720 -49.7110 314° West 432 497 30,000 -73 Level FlightAware ADS-B
Sat 08:14:54 PM -21.7160 -49.7740 314° West 432 497 29,900  Descending FlightAware ADS-B
Sat 08:15:34 PM -21.6570 -49.8380 315° West 432 497 30,000 86 Climbing FlightAware ADS-B
Sat 08:16:04 PM -21.6170 -49.8830 314° West 432 497 30,000  Level FlightAware ADS-B
Sat 08:16:48 PM -21.5540 -49.9530 314° West 432 497 30,000  Level FlightAware ADS-B
Sat 08:17:32 PM -21.4930 -50.0200 314° West 432 497 30,000  Level FlightAware ADS-B
Sat 08:18:12 PM -21.4370 -50.0810 315° West 431 496 30,000  Level FlightAware ADS-B
Sat 08:18:56 PM -21.3770 -50.1470 314° West 431 496 30,000  Level FlightAware ADS-B
Sat 08:19:34 PM -21.3230 -50.2080 314° West 431 496 30,000  Level FlightAware ADS-B
Sat 08:20:20 PM -21.2600 -50.2780 314° West 430 495 30,000  Level FlightAware ADS-B
Sat 08:21:00 PM -21.2050 -50.3390 314° West 429 494 30,000  Level FlightAware ADS-B
Sat 08:21:42 PM -21.1460 -50.4040 314° West 428 493 30,000  Level FlightAware ADS-B
Sat 08:22:24 PM -21.0890 -50.4680 314° West 427 491 30,000  Level FlightAware ADS-B
Sat 08:23:04 PM -21.0330 -50.5290 315° West 427 491 30,000  Level FlightAware ADS-B
Sat 08:23:48 PM -20.9730 -50.5950 314° West 427 491 30,000  Level FlightAware ADS-B
Sat 08:24:26 PM -20.9210 -50.6530 314° West 427 491 30,000  Level FlightAware ADS-B
Sat 08:25:14 PM -20.8540 -50.7270 314° West 427 491 30,000  Level FlightAware ADS-B
Sat 08:25:54 PM -20.8000 -50.7850 315° West 427 491 30,000  Level FlightAware ADS-B
Sat 08:26:34 PM -20.7430 -50.8460 315° West 427 491 30,000  Level FlightAware ADS-B
Sat 08:27:18 PM -20.6820 -50.9110 315° West 427 491 30,000  Level FlightAware ADS-B
Sat 08:27:59 PM -20.6240 -50.9720 315° West 426 490 30,000  Level FlightAware ADS-B
Sat 08:28:38 PM -20.5710 -51.0290 315° West 427 491 30,000  Level FlightAware ADS-B
Sat 08:29:24 PM -20.5060 -51.0980 315° West 426 490 30,000  Level FlightAware ADS-B
Sat 08:30:06 PM -20.4480 -51.1600 315° West 424 488 30,000  Level FlightAware ADS-B
Sat 08:30:47 PM -20.4000 -51.2100 316° Northwest 424 488 30,000  Level FlightAware ADS-B
Sat 08:31:29 PM -20.3300 -51.2810 316° Northwest 432 497 30,000  Level FlightAware ADS-B
Sat 08:32:06 PM -20.2700 -51.3140 333° Northwest 440 506 30,000  Level FlightAware ADS-B
Sat 08:33:21 PM -20.1440 -51.3840 332° Northwest 438 504 30,000  Level FlightAware ADS-B
Sat 08:33:58 PM -20.0880 -51.4160 332° Northwest 438 504 30,000  Level FlightAware ADS-B
Sat 08:34:46 PM -20.0150 -51.4570 332° Northwest 438 504 30,000  Level FlightAware ADS-B
Sat 08:35:57 PM -19.9070 -51.5190 332° Northwest 438 504 30,000 -158 Level FlightAware ADS-B
Sat 08:38:00 PM -19.7149 -51.6245 333° Northwest  Level Estimated
Sat 08:39:00 PM -19.6212 -51.6759 333° Northwest  Level Estimated
Sat 08:40:00 PM -19.5274 -51.7272 333° Northwest  Level Estimated
Sat 08:41:00 PM -19.4337 -51.7785 333° Northwest  Level Estimated
Sat 08:42:00 PM -19.3399 -51.8297 333° Northwest  Level Estimated
Sat 08:43:00 PM -19.2461 -51.8808 333° Northwest  Level Estimated
Sat 08:44:00 PM -19.1523 -51.9319 333° Northwest  Level Estimated
Sat 08:45:00 PM -19.0585 -51.9829 333° Northwest  Level Estimated
Sat 08:46:00 PM -18.9647 -52.0339 333° Northwest  Level Estimated
Sat 08:47:00 PM -18.8708 -52.0848 333° Northwest  Level Estimated
Sat 08:48:00 PM -18.7770 -52.1357 333° Northwest  Level Estimated
Sat 08:49:00 PM -18.6831 -52.1865 333° Northwest  Level Estimated
Sat 08:50:00 PM -18.5893 -52.2372 333° Northwest  Level Estimated
Sat 08:51:00 PM -18.4953 -52.2879 333° Northwest  Level Estimated
Sat 08:52:00 PM -18.4014 -52.3385 333° Northwest  Level Estimated
Sat 08:53:00 PM -18.3075 -52.3891 333° Northwest  Level Estimated
Sat 08:54:00 PM -18.2136 -52.4396 333° Northwest  Level Estimated
Sat 08:55:00 PM -18.1196 -52.4901 333° Northwest  Level Estimated
Sat 08:56:00 PM -18.0257 -52.5405 333° Northwest  Level Estimated
Sat 08:57:00 PM -17.9317 -52.5909 333° Northwest  Level Estimated
Sat 08:58:00 PM -17.8377 -52.6412 333° Northwest  Level Estimated
Sat 08:59:00 PM -17.7437 -52.6914 333° Northwest  Level Estimated
Sat 09:00:00 PM -17.6497 -52.7416 333° Northwest  Level Estimated
Sat 09:01:00 PM -17.5557 -52.7918 333° Northwest  Level Estimated
Sat 09:02:00 PM -17.4616 -52.8419 333° Northwest  Level Estimated
Sat 09:03:00 PM -17.3676 -52.8919 333° Northwest  Level Estimated
Sat 09:04:00 PM -17.2735 -52.9419 333° Northwest  Level Estimated
Sat 09:05:00 PM -17.1794 -52.9918 333° Northwest  Level Estimated
Sat 09:06:00 PM -17.0853 -53.0417 333° Northwest  Level Estimated
Sat 09:07:00 PM -16.9912 -53.0915 333° Northwest  Level Estimated
Sat 09:08:00 PM -16.8971 -53.1413 333° Northwest  Level Estimated
Sat 09:09:00 PM -16.8030 -53.1911 333° Northwest  Level Estimated
Sat 09:10:00 PM -16.7089 -53.2408 333° Northwest  Level Estimated
Sat 09:11:00 PM -16.6147 -53.2904 333° Northwest  Level Estimated
Sat 09:12:00 PM -16.5206 -53.3400 333° Northwest  Level Estimated
Sat 09:13:00 PM -16.4264 -53.3895 333° Northwest  Level Estimated
Sat 09:14:00 PM -16.3322 -53.4390 333° Northwest  Level Estimated
Sat 09:15:00 PM -16.2380 -53.4885 333° Northwest  Level Estimated
Sat 09:16:00 PM -16.1438 -53.5379 333° Northwest  Level Estimated
Sat 09:17:00 PM -16.0496 -53.5872 333° Northwest  Level Estimated
Sat 09:18:00 PM -15.9553 -53.6366 333° Northwest  Level Estimated
Sat 09:19:00 PM -15.8611 -53.6858 333° Northwest  Level Estimated
Sat 09:20:00 PM -15.7669 -53.7350 333° Northwest  Level Estimated
Sat 09:21:00 PM -15.6726 -53.7842 333° Northwest  Level Estimated
Sat 09:22:00 PM -15.5783 -53.8333 333° Northwest  Level Estimated
Sat 09:23:00 PM -15.4840 -53.8824 333° Northwest  Level Estimated
Sat 09:24:00 PM -15.3897 -53.9314 333° Northwest  Level Estimated
Sat 09:25:00 PM -15.2954 -53.9804 333° Northwest  Level Estimated
Sat 09:26:00 PM -15.2011 -54.0294 333° Northwest  Level Estimated
Sat 09:27:00 PM -15.1068 -54.0783 333° Northwest  Level Estimated
Sat 09:28:00 PM -15.0125 -54.1271 333° Northwest  Level Estimated
Sat 09:29:00 PM -14.9181 -54.1759 333° Northwest  Level Estimated
Sat 09:30:00 PM -14.8237 -54.2247 333° Northwest  Level Estimated
Sat 09:31:00 PM -14.7294 -54.2734 333° Northwest  Level Estimated
Sat 09:32:00 PM -14.6350 -54.3221 333° Northwest  Level Estimated
Sat 09:33:00 PM -14.5406 -54.3708 333° Northwest  Level Estimated
Sat 09:34:00 PM -14.4462 -54.4194 333° Northwest  Level Estimated
Sat 09:35:00 PM -14.3518 -54.4679 334° Northwest  Level Estimated
Sat 09:36:00 PM -14.2574 -54.5165 334° Northwest  Level Estimated
Sat 09:37:00 PM -14.1629 -54.5649 334° Northwest  Level Estimated
Sat 09:38:00 PM -14.0685 -54.6134 334° Northwest  Level Estimated
Sat 09:39:00 PM -13.9740 -54.6618 334° Northwest  Level Estimated
Sat 09:40:00 PM -13.8796 -54.7102 334° Northwest  Level Estimated
Sat 09:41:00 PM -13.7851 -54.7585 334° Northwest  Level Estimated
Sat 09:42:00 PM -13.6906 -54.8068 334° Northwest  Level Estimated
Sat 09:43:00 PM -13.5962 -54.8550 334° Northwest  Level Estimated
Sat 09:44:00 PM -13.5016 -54.9032 334° Northwest  Level Estimated
Sat 09:45:00 PM -13.4072 -54.9514 334° Northwest  Level Estimated
Sat 09:46:00 PM -13.3126 -54.9995 334° Northwest  Level Estimated
Sat 09:47:00 PM -13.2181 -55.0476 334° Northwest  Level Estimated
Sat 09:48:00 PM -13.1236 -55.0956 334° Northwest  Level Estimated
Sat 09:49:00 PM -13.0290 -55.1437 334° Northwest  Level Estimated
Sat 09:50:00 PM -12.9345 -55.1917 334° Northwest  Level Estimated
Sat 09:51:00 PM -12.8399 -55.2396 334° Northwest  Level Estimated
Sat 09:52:00 PM -12.7454 -55.2875 334° Northwest  Level Estimated
Sat 09:53:00 PM -12.6508 -55.3354 334° Northwest  Level Estimated
Sat 09:54:00 PM -12.5562 -55.3832 334° Northwest  Level Estimated
Sat 09:55:00 PM -12.4616 -55.4310 334° Northwest  Level Estimated
Sat 09:56:00 PM -12.3670 -55.4788 334° Northwest  Level Estimated
Sat 09:57:00 PM -12.2724 -55.5265 334° Northwest  Level Estimated
Sat 09:58:00 PM -12.1778 -55.5742 334° Northwest  Level Estimated
Sat 09:59:00 PM -12.0832 -55.6219 334° Northwest  Level Estimated
Sat 10:00:00 PM -11.9885 -55.6695 334° Northwest  Level Estimated
Sat 10:01:00 PM -11.8939 -55.7171 334° Northwest  Level Estimated
Sat 10:02:00 PM -11.7992 -55.7647 334° Northwest  Level Estimated
Sat 10:03:00 PM -11.7046 -55.8122 334° Northwest  Level Estimated
Sat 10:04:00 PM -11.6099 -55.8597 334° Northwest  Level Estimated
Sat 10:05:00 PM -11.5152 -55.9072 334° Northwest  Level Estimated
Sat 10:06:00 PM -11.4206 -55.9546 334° Northwest  Level Estimated
Sat 10:07:00 PM -11.3259 -56.0020 334° Northwest  Level Estimated
Sat 10:08:00 PM -11.2312 -56.0494 334° Northwest  Level Estimated
Sat 10:09:00 PM -11.1365 -56.0967 334° Northwest  Level Estimated
Sat 10:10:00 PM -11.0418 -56.1441 334° Northwest  Level Estimated
Sat 10:11:00 PM -10.9470 -56.1913 334° Northwest  Level Estimated
Sat 10:12:00 PM -10.8523 -56.2386 334° Northwest  Level Estimated
Sat 10:13:00 PM -10.7576 -56.2858 334° Northwest  Level Estimated
Sat 10:14:00 PM -10.6628 -56.3330 334° Northwest  Level Estimated
Sat 10:15:00 PM -10.5681 -56.3801 334° Northwest  Level Estimated
Sat 10:16:00 PM -10.4733 -56.4273 334° Northwest  Level Estimated
Sat 10:17:00 PM -10.3786 -56.4744 334° Northwest  Level Estimated
Sat 10:18:00 PM -10.2838 -56.5215 334° Northwest  Level Estimated
Sat 10:19:00 PM -10.1890 -56.5685 334° Northwest  Level Estimated
Sat 10:20:00 PM -10.0943 -56.6155 334° Northwest  Level Estimated
Sat 10:21:00 PM -9.9995 -56.6625 334° Northwest  Level Estimated
Sat 10:22:00 PM -9.9047 -56.7095 334° Northwest  Level Estimated
Sat 10:23:00 PM -9.8099 -56.7564 334° Northwest  Level Estimated
Sat 10:24:00 PM -9.7151 -56.8033 334° Northwest  Level Estimated
Sat 10:25:00 PM -9.6203 -56.8502 334° Northwest  Level Estimated
Sat 10:26:00 PM -9.5254 -56.8971 334° Northwest  Level Estimated
Sat 10:27:00 PM -9.4306 -56.9439 334° Northwest  Level Estimated
Sat 10:28:00 PM -9.3358 -56.9907 334° Northwest  Level Estimated
Sat 10:29:00 PM -9.2409 -57.0375 334° Northwest  Level Estimated
Sat 10:30:00 PM -9.1461 -57.0842 334° Northwest  Level Estimated
Sat 10:31:00 PM -9.0513 -57.1310 334° Northwest  Level Estimated
Sat 10:32:00 PM -8.9564 -57.1777 334° Northwest  Level Estimated
Sat 10:33:00 PM -8.8615 -57.2243 334° Northwest  Level Estimated
Sat 10:34:00 PM -8.7667 -57.2710 334° Northwest  Level Estimated
Sat 10:35:00 PM -8.6718 -57.3176 334° Northwest  Level Estimated
Sat 10:36:00 PM -8.5769 -57.3642 334° Northwest  Level Estimated
Sat 10:37:00 PM -8.4820 -57.4108 334° Northwest  Level Estimated
Sat 10:38:00 PM -8.3871 -57.4574 334° Northwest  Level Estimated
Sat 10:39:00 PM -8.2922 -57.5039 334° Northwest  Level Estimated
Sat 10:40:00 PM -8.1973 -57.5504 334° Northwest  Level Estimated
Sat 10:41:00 PM -8.1024 -57.5969 334° Northwest  Level Estimated
Sat 10:42:00 PM -8.0075 -57.6434 334° Northwest  Level Estimated
Sat 10:43:00 PM -7.9126 -57.6899 334° Northwest  Level Estimated
Sat 10:44:00 PM -7.8177 -57.7363 334° Northwest  Level Estimated
Sat 10:45:00 PM -7.7227 -57.7827 334° Northwest  Level Estimated
Sat 10:46:00 PM -7.6278 -57.8291 334° Northwest  Level Estimated
Sat 10:47:00 PM -7.5329 -57.8755 334° Northwest  Level Estimated
Sat 10:48:00 PM -7.4379 -57.9218 334° Northwest  Level Estimated
Sat 10:49:00 PM -7.3430 -57.9681 334° Northwest  Level Estimated
Sat 10:50:00 PM -7.2480 -58.0145 334° Northwest  Level Estimated
Sat 10:51:00 PM -7.1531 -58.0607 334° Northwest  Level Estimated
Sat 10:52:00 PM -7.0581 -58.1070 334° Northwest  Level Estimated
Sat 10:53:00 PM -6.9631 -58.1533 334° Northwest  Level Estimated
Sat 10:54:00 PM -6.8682 -58.1995 334° Northwest  Level Estimated
Sat 10:55:00 PM -6.7732 -58.2457 334° Northwest  Level Estimated
Sat 10:56:00 PM -6.6782 -58.2919 334° Northwest  Level Estimated
Sat 10:57:00 PM -6.5832 -58.3381 334° Northwest  Level Estimated
Sat 10:58:00 PM -6.4882 -58.3842 334° Northwest  Level Estimated
Sat 10:59:00 PM -6.3933 -58.4304 334° Northwest  Level Estimated
Sat 11:00:00 PM -6.2983 -58.4765 334° Northwest  Level Estimated
Sat 11:01:00 PM -6.2033 -58.5226 334° Northwest  Level Estimated
Sat 11:02:00 PM -6.1083 -58.5687 334° Northwest  Level Estimated
Sat 11:03:00 PM -6.0132 -58.6148 334° Northwest  Level Estimated
Sat 11:04:00 PM -5.9182 -58.6608 334° Northwest  Level Estimated
Sat 11:04:20 PM -3.4060 -59.9850 334° Northwest 285 328 6,400  Level FlightAware ADS-B
Sat 11:04:58 PM -3.3660 -60.0030 336° Northwest 285 328 6,200 -1,238 Descending FlightAware ADS-B
Sat 11:05:00 PM -5.8232 -58.7069 334° Northwest  Level Estimated
Sat 11:06:26 PM -3.2550 -60.0540 335° Northwest 275 316 3,800  Level FlightAware ADS-B
Sat 11:06:56 PM -3.2230 -60.0680 336° Northwest 269 310 3,200 -1,241 Descending FlightAware ADS-B
Sat 11:07:24 PM -3.1900 -60.0840 334° Northwest 264 304 2,600 -1,071 Descending FlightAware ADS-B
Sat 11:07:52 PM -3.1580 -60.0980 336° Northwest 268 308 2,200 -621 Descending FlightAware ADS-B
Sat 11:08:22 PM -3.1250 -60.1130 336° Northwest 249 287 2,000 -207 Descending FlightAware ADS-B
Sat 11:08:50 PM -3.0980 -60.1260 334° Northwest 223 257 2,000  Level FlightAware ADS-B
Sat 11:09:18 PM -3.0740 -60.1370 335° Northwest 190 219 2,000 -429 Level FlightAware ADS-B
Sat 11:09:46 PM -3.0520 -60.1450 340° North 172 198 1,600 -536 Descending FlightAware ADS-B
Sat 11:10:14 PM -3.0370 -60.1330 39° Northeast 152 175 1,500 -346 Descending FlightAware ADS-B
Sat 11:10:38 PM -3.0380 -60.1170 94° East 144 166 1,300 -679 Descending FlightAware ADS-B
Sat 11:11:07 PM -3.0390 -60.0990 93° East 140 161 900 -667 Descending FlightAware ADS-B
Sat 11:11:32 PM -3.0390 -60.0820 90° East 141 162 700 -405 Descending FlightAware ADS-B
Sat 11:12:21 PM -3.0390 -60.0540 90° East 146 168 400 -367 Descending FlightAware ADS-B
Sat 11:13:56 PM -3.0370 -60.0390 85° East 16 18 -253 Descending FlightAware ADS-B
Sat 11:14:00 PM -3.0386 -60.0497 85° East  Level Estimated
Sat 11:16:00 PM -3.0386 -60.0497 261° West  Level Estimated
Sat 11:17:00 PM -3.0386 -60.0497 225° Southwest  Level Estimated
Sat 11:18:00 PM -3.0386 -60.0497 225° Southwest  Level Estimated
Sat 11:19:00 PM -3.0386 -60.0497 225° Southwest  Level Estimated
Sat 11:20:00 PM -3.0386 -60.0497 225° Southwest  Level Estimated
Sat 11:21:00 PM -3.0386 -60.0497 225° Southwest  Level Estimated
Sat 11:22:00 PM -3.0386 -60.0497 225° Southwest  Level Estimated
Sat 11:23:00 PM -3.0386 -60.0497 225° Southwest  Level Estimated
Sat 11:24:00 PM -3.0386 -60.0497 225° Southwest  Level Estimated
Sat 11:25:00 PM -3.0386 -60.0497 225° Southwest  Level Estimated
Sat 11:26:00 PM -3.0386 -60.0497 225° Southwest  Level Estimated
Sat 11:27:00 PM -3.0386 -60.0497 225° Southwest  Level Estimated
Sat 11:28:00 PM -3.0386 -60.0497 225° Southwest  Level Estimated
Sat 11:29:00 PM -3.0386 -60.0497 225° Southwest  Level Estimated
Sat 11:30:00 PM -3.0386 -60.0497 225° Southwest  Level Estimated
Sat 11:31:00 PM -3.0386 -60.0497 225° Southwest  Level Estimated
Sat 11:32:00 PM -3.0386 -60.0497 225° Southwest  Level Estimated
Sat 11:33:00 PM -3.0386 -60.0497 225° Southwest  Level Estimated
Sat 11:34:00 PM -3.0386 -60.0497 225° Southwest  Level Estimated
Sat 11:35:00 PM -3.0386 -60.0497 225° Southwest  Level Estimated
Sat 11:36:00 PM -3.0386 -60.0497 225° Southwest  Level Estimated
Sat 11:37:00 PM -3.0386 -60.0497 225° Southwest  Level Estimated
Sat 11:38:00 PM -3.0386 -60.0497 225° Southwest  Level Estimated
Sat 11:39:00 PM -3.0386 -60.0497 225° Southwest  Level Estimated

Login

Don't have an account? Register now (free) for customized features, flight alerts, and more!